createdAt,value
2022-08-25T00:02:05.606Z,97.50
2022-08-25T00:04:35.311Z,97.70
2022-08-25T00:07:05.378Z,97.90
2022-08-25T00:09:34.623Z,98.20
2022-08-25T00:12:03.734Z,98.40
2022-08-25T00:14:36.973Z,98.70
2022-08-25T00:17:06.073Z,98.80
2022-08-25T00:19:37.979Z,99.10
2022-08-25T00:22:07.960Z,99.60
2022-08-25T00:24:35.533Z,99.90
2022-08-25T00:27:03.085Z,99.90
2022-08-25T00:29:31.539Z,99.90
2022-08-25T00:32:00.100Z,99.90
2022-08-25T00:34:34.225Z,99.90
2022-08-25T00:37:03.370Z,99.90
2022-08-25T00:39:30.585Z,99.90
2022-08-25T00:41:58.055Z,99.90
2022-08-25T00:44:29.090Z,99.90
2022-08-25T00:47:00.971Z,99.90
2022-08-25T00:49:40.680Z,99.90
2022-08-25T00:52:24.116Z,99.90
2022-08-25T00:54:57.043Z,99.90
2022-08-25T00:57:39.500Z,99.90
2022-08-25T01:00:20.302Z,99.90
2022-08-25T01:02:48.062Z,99.90
2022-08-25T01:05:15.154Z,99.90
2022-08-25T01:07:44.602Z,99.90
2022-08-25T01:10:13.596Z,99.90
2022-08-25T01:12:41.080Z,99.90
2022-08-25T01:15:10.941Z,99.90
2022-08-25T01:17:49.467Z,99.90
2022-08-25T01:20:19.771Z,99.90
2022-08-25T01:22:55.063Z,99.90
2022-08-25T01:25:52.514Z,99.90
2022-08-25T01:28:20.665Z,99.90
2022-08-25T01:30:47.684Z,99.90
2022-08-25T01:33:17.236Z,99.90
2022-08-25T01:35:45.579Z,99.90
2022-08-25T01:38:13.701Z,99.90
2022-08-25T01:40:41.670Z,99.90
2022-08-25T01:43:13.442Z,99.90
2022-08-25T01:45:45.597Z,99.90
2022-08-25T01:48:14.996Z,99.90
2022-08-25T01:50:43.918Z,99.90
2022-08-25T01:53:24.626Z,99.90
2022-08-25T01:55:51.727Z,99.90
2022-08-25T01:58:47.914Z,99.90
2022-08-25T02:01:21.212Z,99.90
2022-08-25T02:03:52.422Z,99.90
2022-08-25T02:06:29.755Z,99.90
2022-08-25T02:09:04.644Z,99.90
2022-08-25T02:11:33.748Z,99.90
2022-08-25T02:14:01.149Z,99.90
2022-08-25T02:16:34.939Z,99.90
2022-08-25T02:19:02.279Z,99.90
2022-08-25T02:21:29.609Z,99.90
2022-08-25T02:23:57.101Z,99.90
2022-08-25T02:26:24.631Z,99.90
2022-08-25T02:28:53.422Z,99.90
2022-08-25T02:31:24.888Z,99.90
2022-08-25T02:33:53.353Z,99.90
2022-08-25T02:36:21.188Z,99.90
2022-08-25T02:38:48.675Z,99.90
2022-08-25T02:41:20.270Z,99.90
2022-08-25T02:43:48.587Z,99.90
2022-08-25T02:46:19.970Z,99.90
2022-08-25T02:48:47.872Z,99.90
2022-08-25T02:51:15.401Z,99.90
2022-08-25T02:53:45.926Z,99.90
2022-08-25T02:56:14.888Z,99.90
2022-08-25T02:58:42.574Z,99.90
2022-08-25T03:03:43.600Z,99.90
2022-08-25T03:06:15.336Z,99.90
2022-08-25T03:08:42.957Z,99.90
2022-08-25T03:11:10.453Z,99.90
2022-08-25T03:13:37.941Z,99.90
2022-08-25T03:16:09.821Z,99.90
2022-08-25T03:18:41.219Z,99.90
2022-08-25T03:21:11.615Z,99.90
2022-08-25T03:23:40.464Z,99.90
2022-08-25T03:26:26.965Z,99.90
2022-08-25T03:28:55.435Z,99.90
2022-08-25T03:31:27.873Z,99.90
2022-08-25T03:33:55.862Z,99.90
2022-08-25T03:36:24.209Z,99.90
2022-08-25T03:38:52.464Z,99.90
2022-08-25T03:41:25.657Z,99.90
2022-08-25T03:43:56.788Z,99.90
2022-08-25T03:46:43.925Z,99.90
2022-08-25T03:49:14.597Z,99.90
2022-08-25T03:51:53.589Z,99.90
2022-08-25T03:54:25.023Z,99.90
2022-08-25T03:56:52.749Z,99.90
2022-08-25T03:59:20.115Z,99.90
2022-08-25T04:01:52.648Z,99.90
2022-08-25T04:04:21.636Z,99.90
2022-08-25T04:06:48.613Z,99.90
2022-08-25T04:09:15.550Z,99.90
2022-08-25T04:11:42.672Z,99.90
2022-08-25T04:14:09.871Z,99.90
2022-08-25T04:16:43.347Z,99.90
2022-08-25T04:19:10.727Z,99.90
2022-08-25T04:21:39.410Z,99.90
2022-08-25T04:24:11.598Z,99.90
2022-08-25T04:26:49.201Z,99.90
2022-08-25T04:29:23.489Z,99.90
2022-08-25T04:31:53.451Z,99.90
2022-08-25T04:34:29.461Z,99.90
2022-08-25T04:37:05.564Z,99.90
2022-08-25T04:39:32.702Z,99.90
2022-08-25T04:42:01.031Z,99.90
2022-08-25T04:44:29.976Z,99.90
2022-08-25T04:46:57.209Z,99.90
2022-08-25T04:49:24.101Z,99.90
2022-08-25T04:51:51.088Z,99.90
2022-08-25T04:54:22.111Z,99.90
2022-08-25T04:56:54.487Z,99.90
2022-08-25T04:59:30.351Z,99.90
2022-08-25T05:02:02.476Z,99.90
2022-08-25T05:04:29.697Z,99.90
2022-08-25T05:06:58.151Z,99.90
2022-08-25T05:09:26.145Z,99.90
2022-08-25T05:11:54.639Z,99.90
2022-08-25T05:14:26.447Z,99.90
2022-08-25T05:16:55.427Z,99.90
2022-08-25T05:19:24.535Z,99.90
2022-08-25T05:21:52.159Z,99.90
2022-08-25T05:24:19.945Z,99.90
2022-08-25T05:26:46.922Z,99.90
2022-08-25T05:29:14.549Z,99.90
2022-08-25T05:31:47.015Z,99.90
2022-08-25T05:34:15.559Z,99.90
2022-08-25T05:36:43.615Z,99.90
2022-08-25T05:39:11.007Z,99.90
2022-08-25T05:41:38.894Z,99.90
2022-08-25T05:44:05.859Z,99.90
2022-08-25T05:46:35.272Z,99.90
2022-08-25T05:49:02.241Z,99.90
2022-08-25T05:53:56.562Z,99.90
2022-08-25T05:56:23.619Z,99.90
2022-08-25T05:58:50.881Z,99.90
2022-08-25T06:01:47.567Z,99.90
2022-08-25T06:04:17.671Z,99.90
2022-08-25T06:06:44.645Z,99.90
2022-08-25T06:09:12.121Z,99.90
2022-08-25T06:11:40.916Z,99.90
2022-08-25T06:14:11.746Z,99.90
2022-08-25T06:16:40.309Z,99.90
2022-08-25T06:19:09.432Z,99.90
2022-08-25T06:21:39.415Z,99.90
2022-08-25T06:24:10.951Z,99.90
2022-08-25T06:26:40.590Z,99.90
2022-08-25T06:29:07.889Z,99.90
2022-08-25T06:31:34.838Z,99.90
2022-08-25T06:34:02.019Z,99.90
2022-08-25T06:36:28.889Z,99.90
2022-08-25T06:38:55.737Z,99.90
2022-08-25T06:41:22.913Z,99.90
2022-08-25T06:43:54.144Z,99.90
2022-08-25T06:46:35.902Z,99.90
2022-08-25T06:49:06.255Z,99.90
2022-08-25T06:51:35.737Z,99.90
2022-08-25T06:56:30.866Z,99.90
2022-08-25T06:58:58.001Z,99.90
2022-08-25T07:01:27.201Z,99.90
2022-08-25T07:04:00.042Z,99.90
2022-08-25T07:06:31.006Z,99.90
2022-08-25T07:08:58.923Z,99.90
2022-08-25T07:11:26.446Z,99.90
2022-08-25T07:13:53.847Z,99.90
2022-08-25T07:16:21.795Z,99.90
2022-08-25T07:18:49.623Z,99.90
2022-08-25T07:21:17.466Z,99.90
2022-08-25T07:23:47.111Z,99.90
2022-08-25T07:26:36.821Z,99.90
2022-08-25T07:29:16.745Z,99.90
2022-08-25T07:31:44.731Z,99.90
2022-08-25T07:34:30.595Z,99.90
2022-08-25T07:36:57.775Z,99.90
2022-08-25T07:39:27.081Z,99.90
2022-08-25T07:41:56.298Z,99.90
2022-08-25T07:44:24.633Z,99.90
2022-08-25T07:46:55.547Z,99.90
2022-08-25T07:49:26.188Z,99.90
2022-08-25T07:52:06.149Z,99.90
2022-08-25T07:54:37.896Z,99.90
2022-08-25T07:57:09.231Z,99.90
2022-08-25T07:59:43.010Z,99.90
2022-08-25T08:02:18.349Z,99.90
2022-08-25T08:04:48.697Z,99.90
2022-08-25T08:07:42.116Z,99.90
2022-08-25T08:11:00.549Z,99.90
2022-08-25T08:13:02.225Z,99.90
2022-08-25T08:15:30.306Z,99.90
2022-08-25T08:17:59.526Z,99.90
2022-08-25T08:20:28.940Z,99.90
2022-08-25T08:22:56.067Z,99.90
2022-08-25T08:25:26.562Z,99.90
2022-08-25T08:27:58.063Z,99.90
2022-08-25T08:30:26.019Z,99.90
2022-08-25T08:33:11.825Z,99.90
2022-08-25T08:35:42.558Z,99.90
2022-08-25T08:38:14.491Z,99.90
2022-08-25T08:42:11.592Z,99.90
2022-08-25T08:45:09.696Z,99.90
2022-08-25T08:48:23.392Z,99.90
2022-08-25T08:51:12.142Z,99.90
2022-08-25T08:54:01.499Z,98.90
2022-08-25T08:56:45.169Z,98.90
2022-08-25T08:59:20.081Z,97.20
2022-08-25T09:02:00.284Z,97.40
2022-08-25T09:04:45.484Z,97.30
2022-08-25T09:07:20.707Z,95.90
2022-08-25T09:09:48.279Z,96.20
2022-08-25T09:12:41.297Z,95.50
2022-08-25T09:16:20.418Z,94.10
2022-08-25T09:19:41.713Z,94.30
2022-08-25T09:22:35.745Z,93.40
2022-08-25T09:25:54.037Z,93.50
2022-08-25T09:28:55.295Z,92.70
2022-08-25T09:31:29.829Z,92.20
2022-08-25T09:34:01.180Z,92.00
2022-08-25T09:36:33.247Z,91.90
2022-08-25T09:39:07.628Z,91.90
2022-08-25T09:41:51.382Z,91.70
2022-08-25T09:44:41.366Z,91.10
2022-08-25T09:47:18.702Z,91.10
2022-08-25T09:49:56.825Z,90.30
2022-08-25T09:52:26.810Z,90.40
2022-08-25T09:54:56.597Z,90.20
2022-08-25T09:57:56.802Z,90.20
2022-08-25T10:00:24.362Z,90.60
2022-08-25T10:03:24.904Z,91.00
2022-08-25T10:06:13.680Z,90.20
2022-08-25T10:08:43.609Z,89.90
2022-08-25T10:11:15.325Z,89.90
2022-08-25T10:13:53.039Z,88.20
2022-08-25T10:16:34.578Z,88.00
2022-08-25T10:19:12.666Z,89.10
2022-08-25T10:21:43.067Z,87.40
2022-08-25T10:24:12.401Z,86.50
2022-08-25T10:27:15.001Z,87.90
2022-08-25T10:30:05.932Z,85.60
2022-08-25T10:33:05.004Z,87.10
2022-08-25T10:36:09.263Z,87.60
2022-08-25T10:38:43.547Z,86.60
2022-08-25T10:41:37.567Z,86.30
2022-08-25T10:44:53.658Z,86.10
2022-08-25T10:47:51.301Z,85.80
2022-08-25T10:50:45.534Z,84.60
2022-08-25T10:54:04.810Z,84.80
2022-08-25T10:56:41.502Z,84.30
2022-08-25T10:59:55.908Z,82.80
2022-08-25T11:02:44.871Z,84.30
2022-08-25T11:05:32.944Z,84.90
2022-08-25T11:08:28.405Z,84.40
2022-08-25T11:11:17.367Z,82.40
2022-08-25T11:14:09.317Z,81.50
2022-08-25T11:16:48.441Z,80.30
2022-08-25T11:19:28.035Z,80.50
2022-08-25T11:22:07.439Z,80.00
2022-08-25T11:25:13.340Z,78.90
2022-08-25T11:28:23.315Z,78.50
2022-08-25T11:30:53.177Z,79.50
2022-08-25T11:33:21.954Z,79.20
2022-08-25T11:36:03.428Z,81.50
2022-08-25T11:39:05.907Z,79.90
2022-08-25T11:41:41.686Z,79.80
2022-08-25T11:45:00.310Z,80.70
2022-08-25T11:47:43.872Z,80.80
2022-08-25T11:50:35.097Z,80.70
2022-08-25T11:53:28.176Z,80.90
2022-08-25T11:56:08.015Z,79.60
2022-08-25T11:58:43.632Z,80.50
2022-08-25T12:01:40.173Z,80.50
2022-08-25T12:04:31.837Z,80.60
2022-08-25T12:07:10.849Z,80.20
2022-08-25T12:09:53.921Z,79.90
2022-08-25T12:12:44.092Z,80.00
2022-08-25T12:15:24.796Z,80.00
2022-08-25T12:18:18.849Z,79.80
2022-08-25T12:20:55.244Z,79.90
2022-08-25T12:24:03.376Z,79.80
2022-08-25T12:26:49.358Z,80.00
2022-08-25T12:29:31.132Z,79.90
2022-08-25T12:32:38.541Z,80.00
2022-08-25T12:35:57.883Z,80.30
2022-08-25T12:38:50.880Z,79.50
2022-08-25T12:41:24.423Z,79.70
2022-08-25T12:43:54.864Z,79.50
2022-08-25T12:46:22.883Z,79.40
2022-08-25T12:49:15.684Z,79.70
2022-08-25T12:52:04.437Z,79.30
2022-08-25T12:54:57.923Z,78.40
2022-08-25T12:57:45.715Z,77.70
2022-08-25T13:03:27.716Z,79.40
2022-08-25T13:06:18.358Z,79.30
2022-08-25T13:09:24.977Z,78.30
2022-08-25T13:12:10.240Z,79.60
2022-08-25T13:14:45.855Z,78.00
2022-08-25T13:17:33.691Z,77.20
2022-08-25T13:20:26.677Z,77.10
2022-08-25T13:23:00.294Z,76.20
2022-08-25T13:25:32.163Z,75.60
2022-08-25T13:28:04.178Z,75.90
2022-08-25T13:30:36.029Z,76.40
2022-08-25T13:33:23.801Z,75.80
2022-08-25T13:36:15.528Z,74.70
2022-08-25T13:38:46.596Z,73.90
2022-08-25T13:41:21.687Z,73.30
2022-08-25T13:43:56.489Z,72.00
2022-08-25T13:46:28.295Z,73.50
2022-08-25T13:49:08.741Z,72.70
2022-08-25T13:51:37.611Z,72.80
2022-08-25T13:54:09.689Z,74.40
2022-08-25T13:56:41.961Z,73.30
2022-08-25T13:59:40.165Z,71.40
2022-08-25T14:02:15.269Z,70.00
2022-08-25T14:04:51.409Z,69.60
2022-08-25T14:10:36.515Z,67.30
2022-08-25T14:13:32.715Z,66.50
2022-08-25T14:16:15.527Z,67.10
2022-08-25T14:18:58.650Z,65.50
2022-08-25T14:21:31.272Z,66.10
2022-08-25T14:23:59.169Z,65.50
2022-08-25T14:26:27.137Z,63.60
2022-08-25T14:28:54.228Z,64.10
2022-08-25T14:31:39.323Z,63.20
2022-08-25T14:34:24.043Z,63.70
2022-08-25T14:36:51.527Z,61.90
2022-08-25T14:39:20.119Z,61.60
2022-08-25T14:41:52.499Z,62.20
2022-08-25T14:44:20.876Z,61.80
2022-08-25T14:46:56.120Z,61.80
2022-08-25T14:49:29.723Z,60.90
2022-08-25T14:52:01.815Z,61.00
2022-08-25T14:54:33.658Z,60.10
2022-08-25T14:57:02.996Z,59.70
2022-08-25T14:59:35.250Z,59.10
2022-08-25T15:02:02.296Z,59.80
2022-08-25T15:04:30.192Z,59.50
2022-08-25T15:07:01.648Z,60.10
2022-08-25T15:09:33.781Z,58.70
2022-08-25T15:12:01.027Z,59.10
2022-08-25T15:14:28.881Z,58.40
2022-08-25T15:17:01.917Z,58.50
2022-08-25T15:19:29.332Z,59.20
2022-08-25T15:21:58.268Z,59.00
2022-08-25T15:24:28.075Z,59.20
2022-08-25T15:27:03.979Z,59.40
2022-08-25T15:29:34.791Z,59.30
2022-08-25T15:32:05.002Z,58.60
2022-08-25T15:34:32.309Z,58.40
2022-08-25T15:37:07.146Z,57.80
2022-08-25T15:39:34.797Z,58.30
2022-08-25T15:42:02.558Z,58.40
2022-08-25T15:44:32.415Z,58.80
2022-08-25T15:47:00.551Z,58.70
2022-08-25T15:49:29.686Z,57.30
2022-08-25T15:51:58.953Z,57.20
2022-08-25T15:54:27.370Z,56.70
2022-08-25T15:56:55.640Z,56.00
2022-08-25T15:59:25.179Z,56.60
2022-08-25T16:01:53.611Z,56.00
2022-08-25T16:04:24.101Z,55.70
2022-08-25T16:06:52.034Z,55.70
2022-08-25T16:09:23.105Z,57.00
2022-08-25T16:11:56.636Z,56.30
2022-08-25T16:14:27.688Z,56.10
2022-08-25T16:16:58.306Z,56.20
2022-08-25T16:19:28.659Z,56.20
2022-08-25T16:21:56.996Z,56.80
2022-08-25T16:24:24.516Z,57.00
2022-08-25T16:26:52.458Z,56.70
2022-08-25T16:29:22.840Z,56.10
2022-08-25T16:31:53.215Z,56.60
2022-08-25T16:34:20.697Z,57.10
2022-08-25T16:36:47.749Z,57.10
2022-08-25T16:39:19.656Z,56.90
2022-08-25T16:41:47.858Z,57.60
2022-08-25T16:44:14.818Z,57.90
2022-08-25T16:46:44.417Z,58.30
2022-08-25T16:49:14.235Z,58.20
2022-08-25T16:51:43.240Z,59.00
2022-08-25T16:54:30.680Z,60.00
2022-08-25T16:56:57.817Z,60.10
2022-08-25T16:59:26.035Z,59.80
2022-08-25T17:01:54.053Z,59.10
2022-08-25T17:04:21.612Z,59.50
2022-08-25T17:07:02.192Z,60.20
2022-08-25T17:09:29.738Z,61.10
2022-08-25T17:11:57.198Z,61.10
2022-08-25T17:14:24.436Z,60.90
2022-08-25T17:16:54.821Z,60.50
2022-08-25T17:19:23.920Z,60.90
2022-08-25T17:21:52.305Z,61.30
2022-08-25T17:24:19.457Z,62.40
2022-08-25T17:26:49.957Z,63.10
2022-08-25T17:29:19.088Z,64.30
2022-08-25T17:31:51.062Z,64.00
2022-08-25T17:34:23.210Z,65.90
2022-08-25T17:36:52.084Z,67.00
2022-08-25T17:39:22.352Z,68.40
2022-08-25T17:41:50.618Z,69.30
2022-08-25T17:44:18.110Z,69.50
2022-08-25T17:46:47.397Z,70.00
2022-08-25T17:49:16.340Z,71.00
2022-08-25T17:51:43.291Z,71.60
2022-08-25T17:54:11.022Z,71.80
2022-08-25T17:56:38.419Z,73.20
2022-08-25T17:59:06.289Z,73.90
2022-08-25T18:01:40.187Z,75.00
2022-08-25T18:04:14.304Z,75.00
2022-08-25T18:06:48.542Z,76.00
2022-08-25T18:09:17.668Z,76.80
2022-08-25T18:11:44.860Z,76.80
2022-08-25T18:14:13.816Z,77.80
2022-08-25T18:16:40.928Z,77.90
2022-08-25T18:19:10.748Z,78.50
2022-08-25T18:21:38.793Z,78.90
2022-08-25T18:24:07.941Z,79.10
2022-08-25T18:26:35.694Z,79.70
2022-08-25T18:29:03.127Z,80.30
2022-08-25T18:31:30.878Z,80.50
2022-08-25T18:33:59.297Z,80.50
2022-08-25T18:36:26.326Z,81.40
2022-08-25T18:39:11.651Z,82.20
2022-08-25T18:41:42.694Z,82.20
2022-08-25T18:44:12.294Z,82.50
2022-08-25T18:46:42.852Z,82.40
2022-08-25T18:49:15.925Z,82.80
2022-08-25T18:51:47.385Z,84.00
2022-08-25T18:54:23.224Z,85.00
2022-08-25T18:56:52.917Z,84.60
2022-08-25T18:59:20.374Z,85.10
2022-08-25T19:01:52.730Z,85.90
2022-08-25T19:04:20.198Z,86.30
2022-08-25T19:06:47.418Z,86.30
2022-08-25T19:09:18.857Z,87.40
2022-08-25T19:11:47.389Z,88.00
2022-08-25T19:14:14.546Z,88.20
2022-08-25T19:16:43.695Z,88.90
2022-08-25T19:19:13.629Z,88.80
2022-08-25T19:21:41.761Z,88.80
2022-08-25T19:24:11.810Z,88.60
2022-08-25T19:26:39.424Z,89.00
2022-08-25T19:29:13.098Z,90.00
2022-08-25T19:31:42.195Z,90.10
2022-08-25T19:34:14.388Z,90.20
2022-08-25T19:36:43.106Z,90.30
2022-08-25T19:39:11.984Z,90.30
2022-08-25T19:41:39.556Z,90.70
2022-08-25T19:44:07.962Z,90.90
2022-08-25T19:46:37.783Z,91.10
2022-08-25T19:49:26.431Z,91.60
2022-08-25T19:51:56.358Z,92.00
2022-08-25T19:54:33.723Z,92.20
2022-08-25T19:57:02.552Z,92.50
2022-08-25T19:59:42.773Z,92.70
2022-08-25T20:02:18.556Z,92.80
2022-08-25T20:04:49.994Z,93.00
2022-08-25T20:07:22.802Z,93.10
2022-08-25T20:09:52.657Z,93.40
2022-08-25T20:12:20.421Z,93.80
2022-08-25T20:14:51.970Z,93.90
2022-08-25T20:17:23.910Z,93.90
2022-08-25T20:20:00.998Z,94.10
2022-08-25T20:22:31.296Z,94.50
2022-08-25T20:25:03.689Z,94.70
2022-08-25T20:27:45.851Z,94.90
2022-08-25T20:30:22.165Z,95.50
2022-08-25T20:32:51.410Z,95.50
2022-08-25T20:35:26.411Z,95.60
2022-08-25T20:37:56.289Z,96.00
2022-08-25T20:40:26.216Z,96.50
2022-08-25T20:42:55.632Z,96.70
2022-08-25T20:45:23.513Z,97.20
2022-08-25T20:47:50.955Z,97.50
2022-08-25T20:50:19.397Z,98.00
2022-08-25T20:52:46.279Z,98.20
2022-08-25T20:55:15.710Z,98.50
2022-08-25T20:57:46.323Z,99.20
2022-08-25T21:00:14.310Z,99.20
2022-08-25T21:02:42.708Z,99.60
2022-08-25T21:05:09.632Z,99.90
2022-08-25T21:07:36.902Z,99.90
2022-08-25T21:10:10.393Z,99.90
2022-08-25T21:12:39.236Z,99.90
2022-08-25T21:15:07.189Z,99.90
2022-08-25T21:20:03.893Z,99.90
2022-08-25T21:22:33.067Z,99.90
2022-08-25T21:25:00.113Z,99.90
2022-08-25T21:27:27.080Z,99.90
2022-08-25T21:29:55.488Z,99.90
2022-08-25T21:32:24.146Z,99.90
2022-08-25T21:34:53.945Z,99.90
2022-08-25T21:37:21.569Z,99.90
2022-08-25T21:39:48.792Z,99.90
2022-08-25T21:42:15.881Z,99.90
2022-08-25T21:44:43.431Z,99.90
2022-08-25T21:47:10.852Z,99.90
2022-08-25T21:49:37.848Z,99.90
2022-08-25T21:52:05.413Z,99.90
2022-08-25T21:54:32.480Z,99.90
2022-08-25T21:57:04.090Z,99.90
2022-08-25T21:59:36.337Z,99.90
2022-08-25T22:02:08.784Z,99.90
2022-08-25T22:04:38.797Z,99.90
2022-08-25T22:07:07.493Z,99.90
2022-08-25T22:09:35.391Z,99.90
2022-08-25T22:12:02.688Z,99.90
2022-08-25T22:14:29.735Z,99.90
2022-08-25T22:16:56.997Z,99.90
2022-08-25T22:19:24.982Z,99.90
2022-08-25T22:21:53.507Z,99.90
2022-08-25T22:24:21.384Z,99.90
2022-08-25T22:26:49.266Z,99.90
2022-08-25T22:29:23.174Z,99.90
2022-08-25T22:31:53.445Z,99.90
2022-08-25T22:34:31.705Z,99.90
2022-08-25T22:37:00.535Z,99.90
2022-08-25T22:39:28.810Z,99.90
2022-08-25T22:41:56.232Z,99.90
2022-08-25T22:44:25.448Z,99.90
2022-08-25T22:46:53.626Z,99.90
2022-08-25T22:49:21.802Z,99.90
2022-08-25T22:51:49.113Z,99.90
2022-08-25T22:54:16.696Z,99.90
2022-08-25T22:56:43.749Z,99.90
2022-08-25T22:59:13.463Z,99.90
2022-08-25T23:01:43.134Z,99.90
2022-08-25T23:04:10.928Z,99.90
2022-08-25T23:06:38.480Z,99.90
2022-08-25T23:09:08.013Z,99.90
2022-08-25T23:11:38.507Z,99.90
2022-08-25T23:14:10.109Z,99.90
2022-08-25T23:16:42.842Z,99.90
2022-08-25T23:19:13.874Z,99.90
2022-08-25T23:22:04.534Z,99.90
2022-08-25T23:24:31.898Z,99.90
2022-08-25T23:27:00.638Z,99.90
2022-08-25T23:29:28.798Z,99.90
2022-08-25T23:31:57.513Z,99.90
2022-08-25T23:34:26.403Z,99.90
2022-08-25T23:36:53.953Z,99.90
2022-08-25T23:39:22.163Z,99.90
2022-08-25T23:41:51.085Z,99.90
2022-08-25T23:44:20.180Z,99.90
2022-08-25T23:46:48.549Z,99.90
2022-08-25T23:49:18.976Z,99.90
2022-08-25T23:51:49.308Z,99.90
2022-08-25T23:54:19.549Z,99.90
2022-08-25T23:56:51.795Z,99.90
2022-08-25T23:59:24.480Z,99.90
